sensor_id;sensor_type;location;lat;lon;timestamp;temperature;humidity
68924;DHT22;55961;52.156;20.942;2023-09-18T00:00:17;19.10;77.00
68924;DHT22;55961;52.156;20.942;2023-09-18T00:03:03;19.10;77.00
68924;DHT22;55961;52.156;20.942;2023-09-18T00:05:30;19.00;76.90
68924;DHT22;55961;52.156;20.942;2023-09-18T00:07:56;19.00;77.00
68924;DHT22;55961;52.156;20.942;2023-09-18T00:10:22;19.00;77.10
68924;DHT22;55961;52.156;20.942;2023-09-18T00:12:48;19.00;76.90
68924;DHT22;55961;52.156;20.942;2023-09-18T00:15:14;19.00;76.90
68924;DHT22;55961;52.156;20.942;2023-09-18T00:17:41;19.00;76.80
68924;DHT22;55961;52.156;20.942;2023-09-18T00:20:08;18.90;76.70
68924;DHT22;55961;52.156;20.942;2023-09-18T00:22:34;18.90;76.60
68924;DHT22;55961;52.156;20.942;2023-09-18T00:25:01;18.90;76.50
68924;DHT22;55961;52.156;20.942;2023-09-18T00:27:29;18.90;76.40
68924;DHT22;55961;52.156;20.942;2023-09-18T00:29:56;18.80;76.40
68924;DHT22;55961;52.156;20.942;2023-09-18T00:32:22;18.80;76.40
68924;DHT22;55961;52.156;20.942;2023-09-18T00:34:48;18.80;76.30
68924;DHT22;55961;52.156;20.942;2023-09-18T00:37:13;18.70;76.30
68924;DHT22;55961;52.156;20.942;2023-09-18T00:39:41;18.70;76.30
68924;DHT22;55961;52.156;20.942;2023-09-18T00:42:07;18.70;76.30
68924;DHT22;55961;52.156;20.942;2023-09-18T00:44:39;18.70;76.30
68924;DHT22;55961;52.156;20.942;2023-09-18T00:47:07;18.60;76.30
68924;DHT22;55961;52.156;20.942;2023-09-18T00:49:33;18.60;76.30
68924;DHT22;55961;52.156;20.942;2023-09-18T00:51:59;18.60;76.30
68924;DHT22;55961;52.156;20.942;2023-09-18T00:54:26;18.50;76.60
68924;DHT22;55961;52.156;20.942;2023-09-18T00:56:53;18.50;76.70
68924;DHT22;55961;52.156;20.942;2023-09-18T00:59:21;18.50;76.80
68924;DHT22;55961;52.156;20.942;2023-09-18T01:01:48;18.40;76.90
68924;DHT22;55961;52.156;20.942;2023-09-18T01:04:19;18.40;76.90
68924;DHT22;55961;52.156;20.942;2023-09-18T01:06:45;18.40;76.90
68924;DHT22;55961;52.156;20.942;2023-09-18T01:09:13;18.30;77.00
68924;DHT22;55961;52.156;20.942;2023-09-18T01:15:08;18.30;77.10
68924;DHT22;55961;52.156;20.942;2023-09-18T01:17:37;18.20;77.00
68924;DHT22;55961;52.156;20.942;2023-09-18T01:20:04;18.20;77.10
68924;DHT22;55961;52.156;20.942;2023-09-18T01:22:31;18.20;77.20
68924;DHT22;55961;52.156;20.942;2023-09-18T01:24:58;18.10;77.30
68924;DHT22;55961;52.156;20.942;2023-09-18T01:27:24;18.10;77.30
68924;DHT22;55961;52.156;20.942;2023-09-18T01:29:50;18.10;77.40
68924;DHT22;55961;52.156;20.942;2023-09-18T01:32:16;18.10;77.40
68924;DHT22;55961;52.156;20.942;2023-09-18T01:34:47;18.10;77.50
68924;DHT22;55961;52.156;20.942;2023-09-18T01:37:15;18.00;77.60
68924;DHT22;55961;52.156;20.942;2023-09-18T01:39:43;18.00;77.70
68924;DHT22;55961;52.156;20.942;2023-09-18T01:42:10;18.00;77.70
68924;DHT22;55961;52.156;20.942;2023-09-18T01:44:37;18.00;77.90
68924;DHT22;55961;52.156;20.942;2023-09-18T01:47:05;17.90;77.90
68924;DHT22;55961;52.156;20.942;2023-09-18T01:52:00;17.90;78.30
68924;DHT22;55961;52.156;20.942;2023-09-18T01:54:26;17.90;78.50
68924;DHT22;55961;52.156;20.942;2023-09-18T01:56:53;17.90;78.60
68924;DHT22;55961;52.156;20.942;2023-09-18T01:59:20;17.90;78.80
68924;DHT22;55961;52.156;20.942;2023-09-18T02:01:46;17.90;78.70
68924;DHT22;55961;52.156;20.942;2023-09-18T02:04:12;17.90;78.80
68924;DHT22;55961;52.156;20.942;2023-09-18T02:06:38;17.90;79.00
68924;DHT22;55961;52.156;20.942;2023-09-18T02:09:05;17.90;79.10
68924;DHT22;55961;52.156;20.942;2023-09-18T02:11:39;17.90;79.30
68924;DHT22;55961;52.156;20.942;2023-09-18T02:14:06;17.90;79.40
68924;DHT22;55961;52.156;20.942;2023-09-18T02:16:39;17.90;79.40
68924;DHT22;55961;52.156;20.942;2023-09-18T02:19:10;17.90;79.50
68924;DHT22;55961;52.156;20.942;2023-09-18T02:21:36;17.90;79.50
68924;DHT22;55961;52.156;20.942;2023-09-18T02:24:03;17.90;79.70
68924;DHT22;55961;52.156;20.942;2023-09-18T02:26:29;17.90;79.80
68924;DHT22;55961;52.156;20.942;2023-09-18T02:28:59;17.90;79.80
68924;DHT22;55961;52.156;20.942;2023-09-18T02:31:25;18.00;79.80
68924;DHT22;55961;52.156;20.942;2023-09-18T02:33:51;18.00;79.90
68924;DHT22;55961;52.156;20.942;2023-09-18T02:36:17;18.00;80.10
68924;DHT22;55961;52.156;20.942;2023-09-18T02:38:43;18.00;80.20
68924;DHT22;55961;52.156;20.942;2023-09-18T02:41:09;18.00;80.30
68924;DHT22;55961;52.156;20.942;2023-09-18T02:43:35;18.00;80.40
68924;DHT22;55961;52.156;20.942;2023-09-18T02:46:04;18.00;80.70
68924;DHT22;55961;52.156;20.942;2023-09-18T02:48:31;18.00;80.80
68924;DHT22;55961;52.156;20.942;2023-09-18T02:50:59;18.00;81.10
68924;DHT22;55961;52.156;20.942;2023-09-18T02:53:25;18.00;81.30
68924;DHT22;55961;52.156;20.942;2023-09-18T02:55:53;18.00;81.50
68924;DHT22;55961;52.156;20.942;2023-09-18T02:58:20;17.90;81.60
68924;DHT22;55961;52.156;20.942;2023-09-18T03:00:48;17.90;81.80
68924;DHT22;55961;52.156;20.942;2023-09-18T03:03:15;17.90;81.90
68924;DHT22;55961;52.156;20.942;2023-09-18T03:05:42;17.90;82.10
68924;DHT22;55961;52.156;20.942;2023-09-18T03:08:11;17.90;82.30
68924;DHT22;55961;52.156;20.942;2023-09-18T03:10:41;17.90;82.30
68924;DHT22;55961;52.156;20.942;2023-09-18T03:13:10;17.90;82.40
68924;DHT22;55961;52.156;20.942;2023-09-18T03:15:36;17.80;82.50
68924;DHT22;55961;52.156;20.942;2023-09-18T03:18:03;17.80;82.60
68924;DHT22;55961;52.156;20.942;2023-09-18T03:20:30;17.80;82.60
68924;DHT22;55961;52.156;20.942;2023-09-18T03:22:58;17.80;82.70
68924;DHT22;55961;52.156;20.942;2023-09-18T03:25:24;17.80;82.70
68924;DHT22;55961;52.156;20.942;2023-09-18T03:27:56;17.80;82.80
68924;DHT22;55961;52.156;20.942;2023-09-18T03:30:23;17.80;82.90
68924;DHT22;55961;52.156;20.942;2023-09-18T03:32:50;17.80;83.00
68924;DHT22;55961;52.156;20.942;2023-09-18T03:35:17;17.80;83.00
68924;DHT22;55961;52.156;20.942;2023-09-18T03:37:53;17.80;82.90
68924;DHT22;55961;52.156;20.942;2023-09-18T03:40:19;17.80;83.00
68924;DHT22;55961;52.156;20.942;2023-09-18T03:42:46;17.80;83.00
68924;DHT22;55961;52.156;20.942;2023-09-18T03:45:12;17.80;83.00
68924;DHT22;55961;52.156;20.942;2023-09-18T03:47:40;17.80;83.10
68924;DHT22;55961;52.156;20.942;2023-09-18T03:50:09;17.80;83.20
68924;DHT22;55961;52.156;20.942;2023-09-18T03:52:37;17.80;83.30
68924;DHT22;55961;52.156;20.942;2023-09-18T03:55:05;17.80;83.30
68924;DHT22;55961;52.156;20.942;2023-09-18T03:57:31;17.80;83.30
68924;DHT22;55961;52.156;20.942;2023-09-18T03:59:57;17.80;83.30
68924;DHT22;55961;52.156;20.942;2023-09-18T04:02:24;17.70;83.40
68924;DHT22;55961;52.156;20.942;2023-09-18T04:04:51;17.80;83.50
68924;DHT22;55961;52.156;20.942;2023-09-18T04:07:17;17.70;83.40
68924;DHT22;55961;52.156;20.942;2023-09-18T04:09:45;17.70;83.40
68924;DHT22;55961;52.156;20.942;2023-09-18T04:12:11;17.80;83.30
68924;DHT22;55961;52.156;20.942;2023-09-18T04:14:38;17.80;83.40
68924;DHT22;55961;52.156;20.942;2023-09-18T04:17:04;17.80;83.40
68924;DHT22;55961;52.156;20.942;2023-09-18T04:19:30;17.80;83.30
68924;DHT22;55961;52.156;20.942;2023-09-18T04:21:57;17.80;83.30
68924;DHT22;55961;52.156;20.942;2023-09-18T04:24:23;17.80;83.30
68924;DHT22;55961;52.156;20.942;2023-09-18T04:26:49;17.80;83.20
68924;DHT22;55961;52.156;20.942;2023-09-18T04:29:18;17.80;83.20
68924;DHT22;55961;52.156;20.942;2023-09-18T04:31:45;17.90;83.10
68924;DHT22;55961;52.156;20.942;2023-09-18T04:34:11;17.90;83.00
68924;DHT22;55961;52.156;20.942;2023-09-18T04:36:37;17.90;82.80
68924;DHT22;55961;52.156;20.942;2023-09-18T04:39:06;17.90;82.80
68924;DHT22;55961;52.156;20.942;2023-09-18T04:41:33;17.90;82.70
68924;DHT22;55961;52.156;20.942;2023-09-18T04:43:59;17.90;82.90
68924;DHT22;55961;52.156;20.942;2023-09-18T04:46:25;17.90;82.80
68924;DHT22;55961;52.156;20.942;2023-09-18T04:48:51;18.00;82.70
68924;DHT22;55961;52.156;20.942;2023-09-18T04:51:18;18.00;82.70
68924;DHT22;55961;52.156;20.942;2023-09-18T04:53:43;18.00;82.60
68924;DHT22;55961;52.156;20.942;2023-09-18T04:56:09;18.00;82.60
68924;DHT22;55961;52.156;20.942;2023-09-18T04:58:39;18.00;82.70
68924;DHT22;55961;52.156;20.942;2023-09-18T05:01:05;18.00;82.70
68924;DHT22;55961;52.156;20.942;2023-09-18T05:03:36;18.00;82.70
68924;DHT22;55961;52.156;20.942;2023-09-18T05:06:02;18.00;82.80
68924;DHT22;55961;52.156;20.942;2023-09-18T05:08:29;18.00;82.80
68924;DHT22;55961;52.156;20.942;2023-09-18T05:10:56;18.00;82.90
68924;DHT22;55961;52.156;20.942;2023-09-18T05:13:23;18.10;82.90
68924;DHT22;55961;52.156;20.942;2023-09-18T05:15:49;18.10;82.80
68924;DHT22;55961;52.156;20.942;2023-09-18T05:18:15;18.10;82.90
68924;DHT22;55961;52.156;20.942;2023-09-18T05:20:42;18.10;82.90
68924;DHT22;55961;52.156;20.942;2023-09-18T05:23:08;18.10;83.10
68924;DHT22;55961;52.156;20.942;2023-09-18T05:25:34;18.10;83.00
68924;DHT22;55961;52.156;20.942;2023-09-18T05:28:03;18.10;83.00
68924;DHT22;55961;52.156;20.942;2023-09-18T05:30:35;18.20;83.00
68924;DHT22;55961;52.156;20.942;2023-09-18T05:33:04;18.20;82.90
68924;DHT22;55961;52.156;20.942;2023-09-18T05:35:35;18.20;83.00
68924;DHT22;55961;52.156;20.942;2023-09-18T05:38:04;18.20;83.00
68924;DHT22;55961;52.156;20.942;2023-09-18T05:40:31;18.30;83.00
68924;DHT22;55961;52.156;20.942;2023-09-18T05:42:58;18.30;82.90
68924;DHT22;55961;52.156;20.942;2023-09-18T05:45:24;18.30;82.80
68924;DHT22;55961;52.156;20.942;2023-09-18T05:47:51;18.30;82.80
68924;DHT22;55961;52.156;20.942;2023-09-18T05:50:19;18.30;82.80
68924;DHT22;55961;52.156;20.942;2023-09-18T05:52:47;18.40;82.70
68924;DHT22;55961;52.156;20.942;2023-09-18T05:55:14;18.40;82.90
68924;DHT22;55961;52.156;20.942;2023-09-18T05:57:41;18.40;82.70
68924;DHT22;55961;52.156;20.942;2023-09-18T06:00:08;18.50;82.90
68924;DHT22;55961;52.156;20.942;2023-09-18T06:02:39;18.50;83.00
68924;DHT22;55961;52.156;20.942;2023-09-18T06:05:06;18.50;83.30
68924;DHT22;55961;52.156;20.942;2023-09-18T06:07:32;18.60;83.30
68924;DHT22;55961;52.156;20.942;2023-09-18T06:09:59;18.70;83.20
68924;DHT22;55961;52.156;20.942;2023-09-18T06:12:25;18.70;82.80
68924;DHT22;55961;52.156;20.942;2023-09-18T06:14:52;18.80;82.50
68924;DHT22;55961;52.156;20.942;2023-09-18T06:17:18;18.80;82.60
68924;DHT22;55961;52.156;20.942;2023-09-18T06:19:45;18.90;82.50
68924;DHT22;55961;52.156;20.942;2023-09-18T06:22:12;18.90;82.20
68924;DHT22;55961;52.156;20.942;2023-09-18T06:24:38;19.00;81.80
68924;DHT22;55961;52.156;20.942;2023-09-18T06:27:04;19.10;81.70
68924;DHT22;55961;52.156;20.942;2023-09-18T06:29:31;19.10;81.70
68924;DHT22;55961;52.156;20.942;2023-09-18T06:31:57;19.20;82.30
68924;DHT22;55961;52.156;20.942;2023-09-18T06:34:24;19.30;81.80
68924;DHT22;55961;52.156;20.942;2023-09-18T06:36:50;19.40;81.90
68924;DHT22;55961;52.156;20.942;2023-09-18T06:39:16;19.50;81.20
68924;DHT22;55961;52.156;20.942;2023-09-18T06:41:42;19.60;80.50
68924;DHT22;55961;52.156;20.942;2023-09-18T06:44:09;19.70;80.50
68924;DHT22;55961;52.156;20.942;2023-09-18T06:46:34;19.80;80.30
68924;DHT22;55961;52.156;20.942;2023-09-18T06:49:00;19.90;80.30
68924;DHT22;55961;52.156;20.942;2023-09-18T06:51:27;20.00;79.80
68924;DHT22;55961;52.156;20.942;2023-09-18T06:53:53;20.10;79.30
68924;DHT22;55961;52.156;20.942;2023-09-18T06:56:20;20.10;79.10
68924;DHT22;55961;52.156;20.942;2023-09-18T06:58:46;20.30;78.70
68924;DHT22;55961;52.156;20.942;2023-09-18T07:01:20;20.30;78.50
68924;DHT22;55961;52.156;20.942;2023-09-18T07:03:47;20.40;78.90
68924;DHT22;55961;52.156;20.942;2023-09-18T07:06:16;20.60;79.00
68924;DHT22;55961;52.156;20.942;2023-09-18T07:08:44;20.70;78.10
68924;DHT22;55961;52.156;20.942;2023-09-18T07:11:10;20.90;77.70
68924;DHT22;55961;52.156;20.942;2023-09-18T07:13:38;21.00;77.40
68924;DHT22;55961;52.156;20.942;2023-09-18T07:16:05;21.10;77.00
68924;DHT22;55961;52.156;20.942;2023-09-18T07:18:31;21.10;76.60
68924;DHT22;55961;52.156;20.942;2023-09-18T07:20:57;21.20;76.40
68924;DHT22;55961;52.156;20.942;2023-09-18T07:23:23;21.30;76.40
68924;DHT22;55961;52.156;20.942;2023-09-18T07:25:49;21.40;75.60
68924;DHT22;55961;52.156;20.942;2023-09-18T07:28:15;21.50;75.20
68924;DHT22;55961;52.156;20.942;2023-09-18T07:30:47;21.60;74.70
68924;DHT22;55961;52.156;20.942;2023-09-18T07:33:14;21.70;74.90
68924;DHT22;55961;52.156;20.942;2023-09-18T07:35:49;21.80;75.30
68924;DHT22;55961;52.156;20.942;2023-09-18T07:38:17;21.90;75.50
68924;DHT22;55961;52.156;20.942;2023-09-18T07:40:45;22.10;75.40
68924;DHT22;55961;52.156;20.942;2023-09-18T07:43:12;22.30;75.10
68924;DHT22;55961;52.156;20.942;2023-09-18T07:45:38;22.50;74.40
68924;DHT22;55961;52.156;20.942;2023-09-18T07:48:07;22.70;73.90
68924;DHT22;55961;52.156;20.942;2023-09-18T07:50:34;22.90;72.80
68924;DHT22;55961;52.156;20.942;2023-09-18T07:53:01;23.00;71.80
68924;DHT22;55961;52.156;20.942;2023-09-18T07:55:27;23.10;71.70
68924;DHT22;55961;52.156;20.942;2023-09-18T07:57:53;23.30;70.70
68924;DHT22;55961;52.156;20.942;2023-09-18T08:00:19;23.40;69.70
68924;DHT22;55961;52.156;20.942;2023-09-18T08:02:49;23.40;69.60
68924;DHT22;55961;52.156;20.942;2023-09-18T08:05:18;23.50;69.50
68924;DHT22;55961;52.156;20.942;2023-09-18T08:07:44;23.50;69.30
68924;DHT22;55961;52.156;20.942;2023-09-18T08:10:10;23.50;69.60
68924;DHT22;55961;52.156;20.942;2023-09-18T08:12:38;23.60;69.80
68924;DHT22;55961;52.156;20.942;2023-09-18T08:15:04;23.60;70.00
68924;DHT22;55961;52.156;20.942;2023-09-18T08:17:32;23.70;69.90
68924;DHT22;55961;52.156;20.942;2023-09-18T08:19:58;23.80;70.10
68924;DHT22;55961;52.156;20.942;2023-09-18T08:22:24;23.90;69.30
68924;DHT22;55961;52.156;20.942;2023-09-18T08:24:50;24.00;69.10
68924;DHT22;55961;52.156;20.942;2023-09-18T08:27:19;24.20;68.70
68924;DHT22;55961;52.156;20.942;2023-09-18T08:29:46;24.30;68.10
68924;DHT22;55961;52.156;20.942;2023-09-18T08:32:12;24.50;67.80
68924;DHT22;55961;52.156;20.942;2023-09-18T08:34:38;24.60;67.60
68924;DHT22;55961;52.156;20.942;2023-09-18T08:37:04;24.80;67.30
68924;DHT22;55961;52.156;20.942;2023-09-18T08:39:30;25.00;66.70
68924;DHT22;55961;52.156;20.942;2023-09-18T08:42:02;25.10;65.90
68924;DHT22;55961;52.156;20.942;2023-09-18T08:44:29;25.30;65.50
68924;DHT22;55961;52.156;20.942;2023-09-18T08:46:56;25.50;64.70
68924;DHT22;55961;52.156;20.942;2023-09-18T08:49:23;25.70;64.00
68924;DHT22;55961;52.156;20.942;2023-09-18T08:51:55;25.90;63.70
68924;DHT22;55961;52.156;20.942;2023-09-18T08:54:24;26.00;63.20
68924;DHT22;55961;52.156;20.942;2023-09-18T08:56:51;26.10;62.20
68924;DHT22;55961;52.156;20.942;2023-09-18T08:59:18;26.20;62.00
68924;DHT22;55961;52.156;20.942;2023-09-18T09:01:46;26.20;61.90
68924;DHT22;55961;52.156;20.942;2023-09-18T09:04:12;26.30;61.50
68924;DHT22;55961;52.156;20.942;2023-09-18T09:06:38;26.50;61.20
68924;DHT22;55961;52.156;20.942;2023-09-18T09:09:04;26.50;59.90
68924;DHT22;55961;52.156;20.942;2023-09-18T09:11:30;26.50;59.70
68924;DHT22;55961;52.156;20.942;2023-09-18T09:14:13;26.50;59.70
68924;DHT22;55961;52.156;20.942;2023-09-18T09:16:48;26.50;59.60
68924;DHT22;55961;52.156;20.942;2023-09-18T09:19:16;26.60;60.30
68924;DHT22;55961;52.156;20.942;2023-09-18T09:21:43;26.70;60.40
68924;DHT22;55961;52.156;20.942;2023-09-18T09:24:11;26.90;60.30
68924;DHT22;55961;52.156;20.942;2023-09-18T09:26:41;27.00;60.00
68924;DHT22;55961;52.156;20.942;2023-09-18T09:29:18;27.10;58.30
68924;DHT22;55961;52.156;20.942;2023-09-18T09:31:45;27.30;58.10
68924;DHT22;55961;52.156;20.942;2023-09-18T09:34:25;27.50;56.90
68924;DHT22;55961;52.156;20.942;2023-09-18T09:36:56;27.60;57.20
68924;DHT22;55961;52.156;20.942;2023-09-18T09:39:22;27.70;56.30
68924;DHT22;55961;52.156;20.942;2023-09-18T09:41:52;27.80;55.60
68924;DHT22;55961;52.156;20.942;2023-09-18T09:44:18;27.90;55.10
68924;DHT22;55961;52.156;20.942;2023-09-18T09:46:46;28.00;54.90
68924;DHT22;55961;52.156;20.942;2023-09-18T09:49:12;28.20;53.60
68924;DHT22;55961;52.156;20.942;2023-09-18T09:51:38;28.30;54.50
68924;DHT22;55961;52.156;20.942;2023-09-18T09:54:04;28.40;54.20
68924;DHT22;55961;52.156;20.942;2023-09-18T09:56:47;28.50;53.20
68924;DHT22;55961;52.156;20.942;2023-09-18T09:59:17;28.60;53.40
68924;DHT22;55961;52.156;20.942;2023-09-18T10:01:48;28.70;53.90
68924;DHT22;55961;52.156;20.942;2023-09-18T10:04:18;28.80;53.30
68924;DHT22;55961;52.156;20.942;2023-09-18T10:06:52;28.80;53.40
68924;DHT22;55961;52.156;20.942;2023-09-18T10:09:20;28.90;52.70
68924;DHT22;55961;52.156;20.942;2023-09-18T10:11:54;29.00;51.60
68924;DHT22;55961;52.156;20.942;2023-09-18T10:14:33;29.10;50.70
68924;DHT22;55961;52.156;20.942;2023-09-18T10:17:30;29.10;50.80
68924;DHT22;55961;52.156;20.942;2023-09-18T10:22:37;29.40;51.00
68924;DHT22;55961;52.156;20.942;2023-09-18T10:25:15;29.50;48.80
68924;DHT22;55961;52.156;20.942;2023-09-18T10:27:48;29.50;48.60
68924;DHT22;55961;52.156;20.942;2023-09-18T10:30:16;29.50;49.20
68924;DHT22;55961;52.156;20.942;2023-09-18T10:32:45;29.60;48.80
68924;DHT22;55961;52.156;20.942;2023-09-18T10:35:12;29.60;49.00
68924;DHT22;55961;52.156;20.942;2023-09-18T10:37:38;29.70;48.10
68924;DHT22;55961;52.156;20.942;2023-09-18T10:40:10;29.60;47.90
68924;DHT22;55961;52.156;20.942;2023-09-18T10:42:41;29.60;48.40
68924;DHT22;55961;52.156;20.942;2023-09-18T10:45:09;29.60;47.90
68924;DHT22;55961;52.156;20.942;2023-09-18T10:47:40;29.60;47.90
68924;DHT22;55961;52.156;20.942;2023-09-18T10:50:08;29.60;47.90
68924;DHT22;55961;52.156;20.942;2023-09-18T10:52:42;29.60;48.40
68924;DHT22;55961;52.156;20.942;2023-09-18T10:55:11;29.60;48.70
68924;DHT22;55961;52.156;20.942;2023-09-18T10:57:50;29.70;48.40
68924;DHT22;55961;52.156;20.942;2023-09-18T11:00:17;29.80;48.50
68924;DHT22;55961;52.156;20.942;2023-09-18T11:02:52;29.90;48.30
68924;DHT22;55961;52.156;20.942;2023-09-18T11:05:31;30.00;47.00
68924;DHT22;55961;52.156;20.942;2023-09-18T11:08:36;30.10;47.50
68924;DHT22;55961;52.156;20.942;2023-09-18T11:11:10;30.20;47.00
68924;DHT22;55961;52.156;20.942;2023-09-18T11:13:47;30.20;46.90
68924;DHT22;55961;52.156;20.942;2023-09-18T11:16:17;30.20;46.60
68924;DHT22;55961;52.156;20.942;2023-09-18T11:18:50;30.30;46.10
68924;DHT22;55961;52.156;20.942;2023-09-18T11:21:19;30.40;46.20
68924;DHT22;55961;52.156;20.942;2023-09-18T11:24:00;30.50;45.30
68924;DHT22;55961;52.156;20.942;2023-09-18T11:26:35;30.60;44.30
68924;DHT22;55961;52.156;20.942;2023-09-18T11:29:03;30.60;43.80
68924;DHT22;55961;52.156;20.942;2023-09-18T11:31:46;30.60;44.30
68924;DHT22;55961;52.156;20.942;2023-09-18T11:36:46;30.80;43.80
68924;DHT22;55961;52.156;20.942;2023-09-18T11:39:13;30.80;43.30
68924;DHT22;55961;52.156;20.942;2023-09-18T11:41:39;30.80;43.20
68924;DHT22;55961;52.156;20.942;2023-09-18T11:46:47;30.90;43.40
68924;DHT22;55961;52.156;20.942;2023-09-18T11:49:22;31.00;42.60
68924;DHT22;55961;52.156;20.942;2023-09-18T11:51:52;31.00;42.40
68924;DHT22;55961;52.156;20.942;2023-09-18T11:54:18;31.00;42.50
68924;DHT22;55961;52.156;20.942;2023-09-18T11:56:45;31.00;42.50
68924;DHT22;55961;52.156;20.942;2023-09-18T11:59:11;30.90;42.70
68924;DHT22;55961;52.156;20.942;2023-09-18T12:01:37;30.90;42.70
68924;DHT22;55961;52.156;20.942;2023-09-18T12:04:07;30.80;43.00
68924;DHT22;55961;52.156;20.942;2023-09-18T12:06:39;30.80;42.90
68924;DHT22;55961;52.156;20.942;2023-09-18T12:09:06;30.80;43.80
68924;DHT22;55961;52.156;20.942;2023-09-18T12:11:33;30.80;42.90
68924;DHT22;55961;52.156;20.942;2023-09-18T12:14:07;30.90;43.30
68924;DHT22;55961;52.156;20.942;2023-09-18T12:16:39;30.90;43.10
68924;DHT22;55961;52.156;20.942;2023-09-18T12:19:05;30.90;42.70
68924;DHT22;55961;52.156;20.942;2023-09-18T12:21:41;30.90;42.50
68924;DHT22;55961;52.156;20.942;2023-09-18T12:24:12;30.90;42.60
68924;DHT22;55961;52.156;20.942;2023-09-18T12:26:38;31.00;43.20
68924;DHT22;55961;52.156;20.942;2023-09-18T12:29:04;31.00;43.10
68924;DHT22;55961;52.156;20.942;2023-09-18T12:31:31;31.10;42.40
68924;DHT22;55961;52.156;20.942;2023-09-18T12:33:57;31.00;42.40
68924;DHT22;55961;52.156;20.942;2023-09-18T12:36:24;30.90;42.70
68924;DHT22;55961;52.156;20.942;2023-09-18T12:38:57;30.80;42.80
68924;DHT22;55961;52.156;20.942;2023-09-18T12:41:26;30.80;43.30
68924;DHT22;55961;52.156;20.942;2023-09-18T12:43:53;30.70;42.80
68924;DHT22;55961;52.156;20.942;2023-09-18T12:46:21;30.60;43.20
68924;DHT22;55961;52.156;20.942;2023-09-18T12:48:48;30.40;43.40
68924;DHT22;55961;52.156;20.942;2023-09-18T12:51:14;30.40;43.80
68924;DHT22;55961;52.156;20.942;2023-09-18T12:53:42;30.30;44.10
68924;DHT22;55961;52.156;20.942;2023-09-18T12:56:10;30.30;44.10
68924;DHT22;55961;52.156;20.942;2023-09-18T12:58:36;30.30;44.00
68924;DHT22;55961;52.156;20.942;2023-09-18T13:01:07;30.40;43.30
68924;DHT22;55961;52.156;20.942;2023-09-18T13:03:45;30.40;43.80
68924;DHT22;55961;52.156;20.942;2023-09-18T13:06:17;30.30;44.20
68924;DHT22;55961;52.156;20.942;2023-09-18T13:08:44;30.40;44.30
68924;DHT22;55961;52.156;20.942;2023-09-18T13:11:10;30.40;42.90
68924;DHT22;55961;52.156;20.942;2023-09-18T13:13:42;30.30;43.30
68924;DHT22;55961;52.156;20.942;2023-09-18T13:16:10;30.30;43.20
68924;DHT22;55961;52.156;20.942;2023-09-18T13:18:36;30.20;44.00
68924;DHT22;55961;52.156;20.942;2023-09-18T13:21:10;30.10;44.50
68924;DHT22;55961;52.156;20.942;2023-09-18T13:23:39;30.00;44.20
68924;DHT22;55961;52.156;20.942;2023-09-18T13:26:07;30.00;45.30
68924;DHT22;55961;52.156;20.942;2023-09-18T13:28:36;30.10;44.30
68924;DHT22;55961;52.156;20.942;2023-09-18T13:31:05;30.10;44.40
68924;DHT22;55961;52.156;20.942;2023-09-18T13:33:33;30.20;44.10
68924;DHT22;55961;52.156;20.942;2023-09-18T13:36:00;30.20;43.90
68924;DHT22;55961;52.156;20.942;2023-09-18T13:38:26;30.10;44.40
68924;DHT22;55961;52.156;20.942;2023-09-18T13:40:54;30.20;44.10
68924;DHT22;55961;52.156;20.942;2023-09-18T13:43:20;30.20;43.50
68924;DHT22;55961;52.156;20.942;2023-09-18T13:45:48;30.20;43.50
68924;DHT22;55961;52.156;20.942;2023-09-18T13:48:18;30.30;43.40
68924;DHT22;55961;52.156;20.942;2023-09-18T13:50:45;30.30;42.80
68924;DHT22;55961;52.156;20.942;2023-09-18T13:53:12;30.40;42.50
68924;DHT22;55961;52.156;20.942;2023-09-18T13:55:38;30.40;43.00
68924;DHT22;55961;52.156;20.942;2023-09-18T13:58:04;30.40;42.50
68924;DHT22;55961;52.156;20.942;2023-09-18T14:00:30;30.40;42.60
68924;DHT22;55961;52.156;20.942;2023-09-18T14:02:56;30.30;43.00
68924;DHT22;55961;52.156;20.942;2023-09-18T14:05:22;30.30;43.20
68924;DHT22;55961;52.156;20.942;2023-09-18T14:07:48;30.40;43.60
68924;DHT22;55961;52.156;20.942;2023-09-18T14:10:15;30.40;44.00
68924;DHT22;55961;52.156;20.942;2023-09-18T14:12:42;30.40;44.20
68924;DHT22;55961;52.156;20.942;2023-09-18T14:15:09;30.50;44.50
68924;DHT22;55961;52.156;20.942;2023-09-18T14:17:36;30.50;44.30
68924;DHT22;55961;52.156;20.942;2023-09-18T14:20:04;30.50;44.50
68924;DHT22;55961;52.156;20.942;2023-09-18T14:22:34;30.50;44.60
68924;DHT22;55961;52.156;20.942;2023-09-18T14:25:00;30.50;44.60
68924;DHT22;55961;52.156;20.942;2023-09-18T14:27:30;30.60;44.30
68924;DHT22;55961;52.156;20.942;2023-09-18T14:29:56;30.50;43.20
68924;DHT22;55961;52.156;20.942;2023-09-18T14:32:22;30.40;43.20
68924;DHT22;55961;52.156;20.942;2023-09-18T14:34:48;30.40;43.70
68924;DHT22;55961;52.156;20.942;2023-09-18T14:37:14;30.40;43.80
68924;DHT22;55961;52.156;20.942;2023-09-18T14:39:40;30.40;43.40
68924;DHT22;55961;52.156;20.942;2023-09-18T14:42:07;30.40;43.70
68924;DHT22;55961;52.156;20.942;2023-09-18T14:44:33;30.30;43.60
68924;DHT22;55961;52.156;20.942;2023-09-18T14:46:58;30.30;44.10
68924;DHT22;55961;52.156;20.942;2023-09-18T14:49:25;30.30;44.50
68924;DHT22;55961;52.156;20.942;2023-09-18T14:51:53;30.20;44.80
68924;DHT22;55961;52.156;20.942;2023-09-18T14:54:20;30.20;44.70
68924;DHT22;55961;52.156;20.942;2023-09-18T14:56:46;30.10;44.90
68924;DHT22;55961;52.156;20.942;2023-09-18T14:59:13;29.90;45.00
68924;DHT22;55961;52.156;20.942;2023-09-18T15:01:38;29.80;45.30
68924;DHT22;55961;52.156;20.942;2023-09-18T15:04:04;29.70;45.80
68924;DHT22;55961;52.156;20.942;2023-09-18T15:06:30;29.70;46.40
68924;DHT22;55961;52.156;20.942;2023-09-18T15:08:57;29.60;46.00
68924;DHT22;55961;52.156;20.942;2023-09-18T15:11:22;29.60;46.40
68924;DHT22;55961;52.156;20.942;2023-09-18T15:13:49;29.60;46.30
68924;DHT22;55961;52.156;20.942;2023-09-18T15:16:15;29.60;46.80
68924;DHT22;55961;52.156;20.942;2023-09-18T15:18:42;29.50;47.10
68924;DHT22;55961;52.156;20.942;2023-09-18T15:21:09;29.50;47.30
68924;DHT22;55961;52.156;20.942;2023-09-18T15:23:36;29.50;46.60
68924;DHT22;55961;52.156;20.942;2023-09-18T15:26:02;29.40;46.70
68924;DHT22;55961;52.156;20.942;2023-09-18T15:28:28;29.30;47.00
68924;DHT22;55961;52.156;20.942;2023-09-18T15:30:55;29.20;47.20
68924;DHT22;55961;52.156;20.942;2023-09-18T15:33:22;29.10;47.40